createdAt,value
2022-12-20T00:02:19.907Z,4.44
2022-12-20T00:04:52.466Z,4.38
2022-12-20T00:07:24.990Z,4.36
2022-12-20T00:09:57.158Z,4.44
2022-12-20T00:12:34.384Z,4.31
2022-12-20T00:15:07.633Z,4.14
2022-12-20T00:17:39.880Z,4.23
2022-12-20T00:20:13.832Z,4.21
2022-12-20T00:22:46.523Z,4.22
2022-12-20T00:25:25.416Z,4.34
2022-12-20T00:27:57.873Z,4.36
2022-12-20T00:30:29.876Z,4.32
2022-12-20T00:33:02.396Z,4.20
2022-12-20T00:35:34.787Z,4.32
2022-12-20T00:38:06.890Z,4.16
2022-12-20T00:40:40.861Z,4.30
2022-12-20T00:43:14.863Z,4.27
2022-12-20T00:45:46.929Z,4.28
2022-12-20T00:48:19.145Z,4.28
2022-12-20T00:50:51.689Z,4.23
2022-12-20T00:53:26.480Z,4.14
2022-12-20T00:55:57.282Z,4.29
2022-12-20T00:58:30.046Z,4.29
2022-12-20T01:01:02.820Z,4.23
2022-12-20T01:03:35.611Z,4.22
2022-12-20T01:06:08.780Z,4.08
2022-12-20T01:08:41.172Z,4.19
2022-12-20T01:11:16.322Z,4.16
2022-12-20T01:13:51.276Z,4.21
2022-12-20T01:16:30.746Z,4.13
2022-12-20T01:19:06.803Z,4.24
2022-12-20T01:21:44.515Z,4.32
2022-12-20T01:24:18.949Z,4.07
2022-12-20T01:26:52.034Z,4.05
2022-12-20T01:29:24.218Z,4.23
2022-12-20T01:31:56.366Z,4.30
2022-12-20T01:34:28.435Z,4.30
2022-12-20T01:37:01.066Z,4.30
2022-12-20T01:39:33.321Z,4.28
2022-12-20T01:42:07.291Z,4.33
2022-12-20T01:44:58.377Z,4.25
2022-12-20T01:47:35.231Z,4.31
2022-12-20T01:50:09.457Z,4.37
2022-12-20T01:52:45.977Z,4.18
2022-12-20T01:55:23.811Z,4.25
2022-12-20T01:58:00.779Z,4.24
2022-12-20T02:00:33.034Z,4.01
2022-12-20T02:03:13.727Z,4.21
2022-12-20T02:05:47.156Z,4.30
2022-12-20T02:08:22.158Z,4.14
2022-12-20T02:11:07.568Z,4.26
2022-12-20T02:13:50.289Z,4.23
2022-12-20T02:16:27.775Z,4.28
2022-12-20T02:19:10.096Z,4.28
2022-12-20T02:21:45.141Z,4.38
2022-12-20T02:24:47.523Z,4.17
2022-12-20T02:27:41.200Z,4.37
2022-12-20T02:30:19.845Z,4.31
2022-12-20T02:32:58.100Z,4.41
2022-12-20T02:35:33.237Z,4.35
2022-12-20T02:38:05.525Z,4.34
2022-12-20T02:40:41.928Z,4.37
2022-12-20T02:43:28.377Z,4.19
2022-12-20T02:46:03.744Z,4.26
2022-12-20T02:48:41.128Z,4.32
2022-12-20T02:51:12.525Z,4.31
2022-12-20T02:53:45.680Z,4.41
2022-12-20T02:56:33.909Z,4.38
2022-12-20T02:59:14.946Z,4.41
2022-12-20T03:01:50.442Z,4.35
2022-12-20T03:04:25.978Z,4.40
2022-12-20T03:07:04.533Z,4.47
2022-12-20T03:09:42.231Z,4.39
2022-12-20T03:12:16.078Z,4.36
2022-12-20T03:14:49.004Z,4.33
2022-12-20T03:17:21.794Z,4.40
2022-12-20T03:19:53.983Z,4.46
2022-12-20T03:22:26.154Z,4.51
2022-12-20T03:24:58.349Z,4.55
2022-12-20T03:27:31.069Z,4.52
2022-12-20T03:30:08.914Z,4.53
2022-12-20T03:32:42.666Z,4.52
2022-12-20T03:35:16.381Z,4.60
2022-12-20T03:37:50.105Z,4.59
2022-12-20T03:40:22.933Z,4.55
2022-12-20T03:42:55.015Z,4.60
2022-12-20T03:45:27.463Z,4.60
2022-12-20T03:47:59.847Z,4.58
2022-12-20T03:50:34.628Z,4.66
2022-12-20T03:53:07.586Z,4.72
2022-12-20T03:55:44.234Z,4.63
2022-12-20T03:58:17.555Z,4.69
2022-12-20T04:00:51.184Z,4.62
2022-12-20T04:03:43.868Z,4.52
2022-12-20T04:06:16.295Z,4.58
2022-12-20T04:08:48.804Z,4.56
2022-12-20T04:11:26.309Z,4.52
2022-12-20T04:14:08.123Z,4.62
2022-12-20T04:16:40.796Z,4.67
2022-12-20T04:19:14.438Z,4.70
2022-12-20T04:21:49.412Z,4.48
2022-12-20T04:24:28.276Z,4.64
2022-12-20T04:27:14.516Z,4.67
2022-12-20T04:29:46.672Z,4.50
2022-12-20T04:32:20.976Z,4.66
2022-12-20T04:34:54.043Z,4.68
2022-12-20T04:37:26.185Z,4.55
2022-12-20T04:39:59.770Z,4.58
2022-12-20T04:42:43.679Z,4.63
2022-12-20T04:45:19.786Z,4.72
2022-12-20T04:48:28.543Z,4.72
2022-12-20T04:50:56.145Z,4.58
2022-12-20T04:53:46.117Z,4.51
2022-12-20T04:56:21.462Z,4.48
2022-12-20T04:58:57.380Z,4.53
2022-12-20T05:01:37.802Z,4.58
2022-12-20T05:04:11.473Z,4.58
2022-12-20T05:06:44.080Z,4.59
2022-12-20T05:09:16.402Z,4.60
2022-12-20T05:11:51.018Z,4.65
2022-12-20T05:14:23.815Z,4.63
2022-12-20T05:16:55.957Z,4.54
2022-12-20T05:19:28.318Z,4.62
2022-12-20T05:22:17.979Z,4.68
2022-12-20T05:25:29.941Z,4.71
2022-12-20T05:28:04.729Z,4.52
2022-12-20T05:30:39.808Z,4.57
2022-12-20T05:33:12.909Z,4.62
2022-12-20T05:35:47.284Z,4.48
2022-12-20T05:38:19.835Z,4.53
2022-12-20T05:40:52.347Z,4.62
2022-12-20T05:43:24.652Z,4.66
2022-12-20T05:45:56.789Z,4.61
2022-12-20T05:48:35.746Z,4.54
2022-12-20T05:51:10.216Z,4.48
2022-12-20T05:53:55.903Z,4.51
2022-12-20T05:56:37.698Z,4.43
2022-12-20T05:59:10.493Z,4.43
2022-12-20T06:01:44.492Z,4.45
2022-12-20T06:04:17.554Z,4.45
2022-12-20T06:06:52.477Z,4.42
2022-12-20T06:09:25.276Z,4.34
2022-12-20T06:12:05.148Z,4.36
2022-12-20T06:14:38.507Z,4.21
2022-12-20T06:17:12.144Z,4.31
2022-12-20T06:19:44.410Z,4.38
2022-12-20T06:22:19.086Z,4.39
2022-12-20T06:24:58.080Z,4.42
2022-12-20T06:27:33.150Z,4.50
2022-12-20T06:30:15.705Z,4.48
2022-12-20T06:33:20.206Z,4.33
2022-12-20T06:35:53.916Z,4.50
2022-12-20T06:38:28.240Z,4.47
2022-12-20T06:41:00.302Z,4.57
2022-12-20T06:43:32.617Z,4.64
2022-12-20T06:46:04.790Z,4.60
2022-12-20T06:48:37.023Z,4.71
2022-12-20T06:51:11.188Z,4.75
2022-12-20T06:53:43.498Z,4.80
2022-12-20T06:56:15.695Z,4.77
2022-12-20T06:58:48.190Z,4.83
2022-12-20T07:01:20.462Z,4.86
2022-12-20T07:03:52.904Z,4.90
2022-12-20T07:06:27.054Z,4.91
2022-12-20T07:08:59.398Z,4.75
2022-12-20T07:11:31.634Z,4.68
2022-12-20T07:14:03.744Z,4.78
2022-12-20T07:16:36.067Z,4.75
2022-12-20T07:19:11.601Z,4.67
2022-12-20T07:21:42.115Z,4.78
2022-12-20T07:24:14.425Z,4.81
2022-12-20T07:26:47.879Z,4.82
2022-12-20T07:29:20.080Z,4.69
2022-12-20T07:31:52.751Z,4.68
2022-12-20T07:34:25.849Z,4.70
2022-12-20T07:36:58.297Z,4.71
2022-12-20T07:39:31.057Z,4.69
2022-12-20T07:42:03.813Z,4.69
2022-12-20T07:44:47.815Z,4.75
2022-12-20T07:47:19.973Z,4.73
2022-12-20T07:49:52.233Z,4.71
2022-12-20T07:52:29.195Z,4.79
2022-12-20T07:55:06.403Z,4.82
2022-12-20T07:57:42.071Z,4.90
2022-12-20T08:00:16.358Z,4.90
2022-12-20T08:02:54.911Z,4.86
2022-12-20T08:05:27.527Z,4.85
2022-12-20T08:08:03.742Z,4.88
2022-12-20T08:10:37.518Z,4.81
2022-12-20T08:13:10.391Z,4.83
2022-12-20T08:15:42.632Z,4.85
2022-12-20T08:18:16.257Z,4.86
2022-12-20T08:20:48.607Z,4.93
2022-12-20T08:23:20.998Z,4.92
2022-12-20T08:25:53.662Z,4.95
2022-12-20T08:28:25.825Z,4.96
2022-12-20T08:31:03.423Z,5.08
2022-12-20T08:33:36.513Z,5.11
2022-12-20T08:36:11.590Z,5.03
2022-12-20T08:38:44.144Z,5.04
2022-12-20T08:41:18.137Z,5.04
2022-12-20T08:43:50.292Z,5.15
2022-12-20T08:46:22.520Z,5.14
2022-12-20T08:48:54.723Z,5.09
2022-12-20T08:51:27.086Z,5.02
2022-12-20T08:53:59.460Z,4.99
2022-12-20T08:56:31.628Z,5.08
2022-12-20T08:59:04.191Z,5.02
2022-12-20T09:01:36.433Z,5.13
2022-12-20T09:04:08.758Z,5.12
2022-12-20T09:06:41.574Z,5.13
2022-12-20T09:09:13.764Z,5.15
2022-12-20T09:11:46.322Z,4.93
2022-12-20T09:14:19.121Z,4.88
2022-12-20T09:16:51.290Z,5.08
2022-12-20T09:19:23.339Z,5.10
2022-12-20T09:21:56.775Z,5.23
2022-12-20T09:24:29.318Z,5.24
2022-12-20T09:27:01.729Z,5.19
2022-12-20T09:29:35.857Z,5.32
2022-12-20T09:32:09.102Z,5.33
2022-12-20T09:34:41.633Z,5.22
2022-12-20T09:37:14.088Z,5.34
2022-12-20T09:39:46.738Z,5.33
2022-12-20T09:42:21.131Z,5.41
2022-12-20T09:44:53.975Z,5.41
2022-12-20T09:47:28.470Z,5.49
2022-12-20T09:50:00.900Z,5.50
2022-12-20T09:52:52.750Z,5.60
2022-12-20T09:55:32.295Z,5.68
2022-12-20T09:58:28.745Z,5.60
2022-12-20T10:01:15.340Z,5.56
2022-12-20T10:03:48.556Z,5.53
2022-12-20T10:06:31.001Z,5.69
2022-12-20T10:09:06.762Z,5.71
2022-12-20T10:11:52.662Z,5.64
2022-12-20T10:14:45.890Z,5.54
2022-12-20T10:17:32.347Z,5.67
2022-12-20T10:20:20.142Z,5.67
2022-12-20T10:22:58.484Z,5.64
2022-12-20T10:25:33.849Z,5.80
2022-12-20T10:28:12.508Z,5.83
2022-12-20T10:30:45.846Z,5.92
2022-12-20T10:33:22.074Z,6.04
2022-12-20T10:35:55.174Z,6.06
2022-12-20T10:38:44.508Z,6.08
2022-12-20T10:41:22.411Z,6.17
2022-12-20T10:44:00.493Z,6.19
2022-12-20T10:46:42.471Z,6.23
2022-12-20T10:49:31.249Z,6.36
2022-12-20T10:52:13.316Z,6.37
2022-12-20T10:54:47.176Z,6.41
2022-12-20T10:57:23.373Z,6.35
2022-12-20T10:59:57.692Z,6.43
2022-12-20T11:02:40.020Z,6.42
2022-12-20T11:05:25.704Z,6.43
2022-12-20T11:11:11.612Z,6.43
2022-12-20T11:13:44.812Z,6.50
2022-12-20T11:16:41.640Z,6.53
2022-12-20T11:19:39.973Z,6.59
2022-12-20T11:22:27.016Z,6.59
2022-12-20T11:25:17.528Z,6.45
2022-12-20T11:28:00.530Z,6.46
2022-12-20T11:30:42.917Z,6.51
2022-12-20T11:33:32.123Z,6.55
2022-12-20T11:36:11.848Z,6.45
2022-12-20T11:38:49.169Z,6.52
2022-12-20T11:41:32.048Z,6.50
2022-12-20T11:44:29.467Z,6.55
2022-12-20T11:47:25.437Z,6.58
2022-12-20T11:50:11.349Z,6.64
2022-12-20T11:52:48.945Z,6.57
2022-12-20T11:55:27.784Z,6.55
2022-12-20T11:58:23.237Z,6.35
2022-12-20T12:00:57.458Z,6.49
2022-12-20T12:03:36.938Z,6.59
2022-12-20T12:06:13.679Z,6.53
2022-12-20T12:08:51.374Z,6.56
2022-12-20T12:14:31.119Z,6.52
2022-12-20T12:17:11.438Z,6.54
2022-12-20T12:19:48.561Z,6.58
2022-12-20T12:22:25.482Z,6.42
2022-12-20T12:25:03.098Z,6.45
2022-12-20T12:27:36.317Z,6.59
2022-12-20T12:30:13.946Z,6.55
2022-12-20T12:32:51.202Z,6.48
2022-12-20T12:35:47.665Z,6.55
2022-12-20T12:38:39.625Z,6.56
2022-12-20T12:41:33.327Z,6.58
2022-12-20T12:44:31.366Z,6.49
2022-12-20T12:47:07.905Z,6.62
2022-12-20T12:49:41.793Z,6.62
2022-12-20T12:52:35.727Z,6.64
2022-12-20T12:55:42.951Z,6.62
2022-12-20T12:58:35.998Z,6.68
2022-12-20T13:01:12.770Z,6.61
2022-12-20T13:04:24.042Z,6.50
2022-12-20T13:07:21.194Z,6.62
2022-12-20T13:09:54.017Z,6.56
2022-12-20T13:13:01.962Z,6.57
2022-12-20T13:15:53.834Z,6.52
2022-12-20T13:18:29.349Z,6.54
2022-12-20T13:21:39.898Z,6.59
2022-12-20T13:24:56.460Z,6.51
2022-12-20T13:27:32.971Z,6.48
2022-12-20T13:30:28.966Z,6.53
2022-12-20T13:33:24.095Z,6.60
2022-12-20T13:36:35.916Z,6.64
2022-12-20T13:39:38.055Z,6.64
2022-12-20T13:42:26.329Z,6.62
2022-12-20T13:45:03.238Z,6.65
2022-12-20T13:47:40.799Z,6.59
2022-12-20T13:50:43.051Z,6.61
2022-12-20T13:53:22.385Z,6.65
2022-12-20T13:55:55.583Z,6.64
2022-12-20T13:58:32.719Z,6.57
2022-12-20T14:01:12.858Z,6.63
2022-12-20T14:03:49.104Z,6.63
2022-12-20T14:06:26.768Z,6.61
2022-12-20T14:08:59.816Z,6.61
2022-12-20T14:11:32.134Z,6.63
2022-12-20T14:14:06.205Z,6.58
2022-12-20T14:16:38.922Z,6.62
2022-12-20T14:19:17.276Z,6.56
2022-12-20T14:21:50.004Z,6.52
2022-12-20T14:24:24.122Z,6.54
2022-12-20T14:26:57.526Z,6.56
2022-12-20T14:29:32.564Z,6.54
2022-12-20T14:32:03.238Z,6.45
2022-12-20T14:34:41.699Z,6.31
2022-12-20T14:37:35.817Z,6.37
2022-12-20T14:40:25.561Z,6.35
2022-12-20T14:42:58.188Z,6.35
2022-12-20T14:45:31.804Z,6.27
2022-12-20T14:48:08.850Z,6.30
2022-12-20T14:50:51.992Z,6.39
2022-12-20T14:53:28.744Z,6.37
2022-12-20T14:56:02.511Z,6.33
2022-12-20T14:58:36.290Z,6.42
2022-12-20T15:01:27.709Z,6.21
2022-12-20T15:04:01.348Z,6.34
2022-12-20T15:06:42.617Z,6.34
2022-12-20T15:09:15.790Z,6.32
2022-12-20T15:11:48.944Z,6.31
2022-12-20T15:14:29.337Z,6.28
2022-12-20T15:17:01.952Z,6.32
2022-12-20T15:19:38.863Z,6.34
2022-12-20T15:22:18.818Z,6.28
2022-12-20T15:24:51.443Z,6.26
2022-12-20T15:27:24.488Z,6.23
2022-12-20T15:29:59.083Z,6.15
2022-12-20T15:32:31.008Z,6.31
2022-12-20T15:35:04.208Z,6.30
2022-12-20T15:37:36.667Z,6.29
2022-12-20T15:40:14.585Z,6.26
2022-12-20T15:42:47.158Z,6.26
2022-12-20T15:45:19.801Z,6.28
2022-12-20T15:47:52.283Z,6.28
2022-12-20T15:50:24.819Z,6.27
2022-12-20T15:52:58.453Z,6.22
2022-12-20T15:55:37.751Z,6.26
2022-12-20T15:58:12.680Z,6.29
2022-12-20T16:00:45.851Z,6.35
2022-12-20T16:03:21.039Z,6.28
2022-12-20T16:05:56.384Z,6.29
2022-12-20T16:08:28.924Z,6.29
2022-12-20T16:11:01.902Z,6.28
2022-12-20T16:13:35.332Z,6.22
2022-12-20T16:16:08.353Z,6.26
2022-12-20T16:18:40.950Z,6.14
2022-12-20T16:21:18.819Z,6.14
2022-12-20T16:23:52.342Z,6.29
2022-12-20T16:26:26.353Z,6.24
2022-12-20T16:28:59.122Z,6.23
2022-12-20T16:31:34.354Z,6.19
2022-12-20T16:34:11.237Z,6.19
2022-12-20T16:36:44.084Z,6.20
2022-12-20T16:39:16.599Z,6.20
2022-12-20T16:41:48.964Z,6.20
2022-12-20T16:44:23.127Z,6.14
2022-12-20T16:46:55.626Z,5.92
2022-12-20T16:49:28.328Z,5.92
2022-12-20T16:52:00.882Z,6.05
2022-12-20T16:54:33.530Z,6.07
2022-12-20T16:57:06.145Z,6.05
2022-12-20T16:59:38.599Z,6.10
2022-12-20T17:02:27.352Z,6.15
2022-12-20T17:05:02.591Z,6.01
2022-12-20T17:07:41.151Z,6.00
2022-12-20T17:10:14.444Z,6.15
2022-12-20T17:12:47.698Z,6.21
2022-12-20T17:15:24.104Z,6.18
2022-12-20T17:17:58.119Z,6.18
2022-12-20T17:20:36.466Z,6.16
2022-12-20T17:26:06.575Z,6.25
2022-12-20T17:28:38.992Z,6.17
2022-12-20T17:31:23.281Z,6.06
2022-12-20T17:33:56.156Z,6.03
2022-12-20T17:36:34.448Z,6.22
2022-12-20T17:39:10.357Z,6.14
2022-12-20T17:41:44.091Z,6.16
2022-12-20T17:44:21.211Z,6.14
2022-12-20T17:46:54.977Z,6.23
2022-12-20T17:49:27.597Z,6.21
2022-12-20T17:52:00.147Z,6.17
2022-12-20T17:54:39.783Z,6.16
2022-12-20T17:57:17.512Z,6.14
2022-12-20T17:59:50.033Z,6.13
2022-12-20T18:02:25.214Z,6.19
2022-12-20T18:04:58.741Z,6.22
2022-12-20T18:07:32.973Z,6.12
2022-12-20T18:10:06.339Z,6.19
2022-12-20T18:12:40.104Z,6.32
2022-12-20T18:15:13.518Z,6.30
2022-12-20T18:17:46.646Z,6.16
2022-12-20T18:20:19.555Z,6.21
2022-12-20T18:22:52.173Z,6.24
2022-12-20T18:25:24.698Z,6.23
2022-12-20T18:27:57.322Z,6.17
2022-12-20T18:30:30.277Z,6.18
2022-12-20T18:33:02.785Z,6.25
2022-12-20T18:35:37.555Z,6.26
2022-12-20T18:38:10.514Z,6.33
2022-12-20T18:40:48.300Z,6.29
2022-12-20T18:43:22.178Z,6.22
2022-12-20T18:45:54.885Z,6.29
2022-12-20T18:48:28.272Z,6.30
2022-12-20T18:51:06.284Z,6.36
2022-12-20T18:53:40.123Z,6.35
2022-12-20T18:56:14.406Z,6.40
2022-12-20T18:58:47.433Z,6.48
2022-12-20T19:01:22.040Z,6.34
2022-12-20T19:03:57.607Z,6.38
2022-12-20T19:06:30.335Z,6.26
2022-12-20T19:09:04.583Z,6.32
2022-12-20T19:11:37.622Z,6.27
2022-12-20T19:14:12.513Z,6.36
2022-12-20T19:16:45.158Z,6.41
2022-12-20T19:19:18.184Z,6.40
2022-12-20T19:21:51.079Z,6.42
2022-12-20T19:24:23.682Z,6.50
2022-12-20T19:26:57.649Z,6.45
2022-12-20T19:29:32.288Z,6.35
2022-12-20T19:32:05.905Z,6.34
2022-12-20T19:34:39.950Z,6.39
2022-12-20T19:37:13.169Z,6.43
2022-12-20T19:39:45.888Z,6.51
2022-12-20T19:42:24.873Z,6.44
2022-12-20T19:44:58.659Z,6.49
2022-12-20T19:47:33.202Z,6.48
2022-12-20T19:50:06.641Z,6.48
2022-12-20T19:52:39.045Z,6.35
2022-12-20T19:55:11.982Z,6.47
2022-12-20T19:57:44.699Z,6.51
2022-12-20T20:00:19.086Z,6.51
2022-12-20T20:02:52.097Z,6.46
2022-12-20T20:05:24.850Z,6.36
2022-12-20T20:08:00.426Z,6.45
2022-12-20T20:10:34.167Z,6.51
2022-12-20T20:13:07.449Z,6.36
2022-12-20T20:15:41.219Z,6.32
2022-12-20T20:18:14.300Z,6.33
2022-12-20T20:20:47.529Z,6.27
2022-12-20T20:23:20.438Z,6.42
2022-12-20T20:25:54.476Z,6.31
2022-12-20T20:28:31.866Z,6.33
2022-12-20T20:31:07.095Z,6.29
2022-12-20T20:33:39.969Z,6.34
2022-12-20T20:36:16.106Z,6.34
2022-12-20T20:38:49.650Z,6.25
2022-12-20T20:41:22.712Z,6.09
2022-12-20T20:43:55.162Z,6.11
2022-12-20T20:46:28.410Z,6.22
2022-12-20T20:49:00.845Z,6.25
2022-12-20T20:51:33.335Z,6.26
2022-12-20T20:54:05.999Z,6.29
2022-12-20T20:56:38.475Z,6.31
2022-12-20T20:59:17.275Z,6.32
2022-12-20T21:01:50.592Z,6.25
2022-12-20T21:04:23.296Z,6.18
2022-12-20T21:06:55.719Z,6.27
2022-12-20T21:09:28.838Z,6.25
2022-12-20T21:12:01.768Z,6.31
2022-12-20T21:15:02.305Z,6.27
2022-12-20T21:17:27.131Z,6.31
2022-12-20T21:19:59.750Z,6.16
2022-12-20T21:22:32.474Z,6.18
2022-12-20T21:25:05.295Z,6.18
2022-12-20T21:27:38.684Z,6.13
2022-12-20T21:30:13.804Z,6.10
2022-12-20T21:32:47.563Z,5.94
2022-12-20T21:35:20.635Z,5.93
2022-12-20T21:37:53.592Z,6.09
2022-12-20T21:40:25.991Z,6.12
2022-12-20T21:42:58.578Z,6.15
2022-12-20T21:45:30.921Z,6.16
2022-12-20T21:48:03.799Z,6.17
2022-12-20T21:50:36.671Z,6.24
2022-12-20T21:53:12.814Z,6.24
2022-12-20T21:55:48.104Z,6.22
2022-12-20T21:58:21.169Z,6.15
2022-12-20T22:00:55.691Z,6.31
2022-12-20T22:03:27.427Z,6.28
2022-12-20T22:06:00.626Z,6.18
2022-12-20T22:08:34.470Z,6.27
2022-12-20T22:11:09.668Z,6.34
2022-12-20T22:13:43.361Z,6.28
2022-12-20T22:16:17.543Z,6.21
2022-12-20T22:18:53.706Z,6.25
2022-12-20T22:21:28.763Z,6.30
2022-12-20T22:24:02.836Z,6.36
2022-12-20T22:26:35.958Z,6.29
2022-12-20T22:29:09.024Z,6.27
2022-12-20T22:31:41.479Z,6.17
2022-12-20T22:34:14.124Z,6.32
2022-12-20T22:36:46.708Z,6.40
2022-12-20T22:39:19.646Z,6.39
2022-12-20T22:41:52.002Z,6.23
2022-12-20T22:44:24.673Z,6.29
2022-12-20T22:46:57.064Z,6.33
2022-12-20T22:49:29.773Z,6.35
2022-12-20T22:52:07.473Z,6.34
2022-12-20T22:54:41.245Z,6.33
2022-12-20T22:57:14.864Z,6.28
2022-12-20T22:59:47.556Z,6.30
2022-12-20T23:02:20.048Z,6.36
2022-12-20T23:04:53.830Z,6.33
2022-12-20T23:07:26.278Z,6.38
2022-12-20T23:09:58.611Z,6.38
2022-12-20T23:12:48.529Z,6.29
2022-12-20T23:15:38.740Z,6.34
2022-12-20T23:18:11.581Z,6.33
2022-12-20T23:21:01.797Z,6.41
2022-12-20T23:23:34.917Z,6.38
2022-12-20T23:26:15.305Z,6.38
2022-12-20T23:28:47.691Z,6.41
2022-12-20T23:31:20.202Z,6.38
2022-12-20T23:33:52.678Z,6.36
2022-12-20T23:36:25.308Z,6.23
2022-12-20T23:38:57.883Z,6.21
2022-12-20T23:41:30.511Z,6.34
2022-12-20T23:44:04.045Z,6.33
2022-12-20T23:46:38.440Z,6.30
2022-12-20T23:49:10.811Z,6.26
2022-12-20T23:51:43.893Z,6.21
2022-12-20T23:54:19.947Z,6.18
2022-12-20T23:56:52.635Z,6.29
2022-12-20T23:59:25.001Z,6.26
